sensor_id;sensor_type;location;lat;lon;timestamp;pressure;altitude;pressure_sealevel;temperature;humidity
67803;BME280;54601;51.378;-1.342;2023-02-16T00:01:14;100875.24;;;19.48;30.44
67803;BME280;54601;51.378;-1.342;2023-02-16T00:03:31;100872.17;;;19.47;30.44
67803;BME280;54601;51.378;-1.342;2023-02-16T00:05:56;100871.92;;;19.50;30.46
67803;BME280;54601;51.378;-1.342;2023-02-16T00:08:21;100872.22;;;19.50;30.42
67803;BME280;54601;51.378;-1.342;2023-02-16T00:10:46;100869.82;;;19.47;30.51
67803;BME280;54601;51.378;-1.342;2023-02-16T00:13:20;100867.39;;;19.41;30.56
67803;BME280;54601;51.378;-1.342;2023-02-16T00:15:36;100865.49;;;19.56;30.43
67803;BME280;54601;51.378;-1.342;2023-02-16T00:18:02;100862.03;;;19.52;30.45
67803;BME280;54601;51.378;-1.342;2023-02-16T00:20:27;100865.72;;;19.50;30.50
67803;BME280;54601;51.378;-1.342;2023-02-16T00:22:52;100858.70;;;19.48;30.52
67803;BME280;54601;51.378;-1.342;2023-02-16T00:25:17;100859.00;;;19.44;30.57
67803;BME280;54601;51.378;-1.342;2023-02-16T00:27:42;100859.40;;;19.49;30.54
67803;BME280;54601;51.378;-1.342;2023-02-16T00:30:13;100858.48;;;19.50;30.55
67803;BME280;54601;51.378;-1.342;2023-02-16T00:32:32;100852.84;;;19.47;30.58
67803;BME280;54601;51.378;-1.342;2023-02-16T00:34:57;100852.65;;;19.50;30.54
67803;BME280;54601;51.378;-1.342;2023-02-16T00:37:23;100850.48;;;19.59;30.47
67803;BME280;54601;51.378;-1.342;2023-02-16T00:39:48;100850.06;;;19.53;30.52
67803;BME280;54601;51.378;-1.342;2023-02-16T00:42:17;100843.64;;;19.58;30.48
67803;BME280;54601;51.378;-1.342;2023-02-16T00:44:40;100843.15;;;19.56;30.54
67803;BME280;54601;51.378;-1.342;2023-02-16T00:47:16;100843.58;;;19.87;30.19
67803;BME280;54601;51.378;-1.342;2023-02-16T00:49:28;100841.53;;;19.76;30.35
67803;BME280;54601;51.378;-1.342;2023-02-16T00:51:54;100837.89;;;19.98;30.37
67803;BME280;54601;51.378;-1.342;2023-02-16T00:54:19;100838.80;;;19.60;30.53
67803;BME280;54601;51.378;-1.342;2023-02-16T00:56:44;100834.44;;;19.74;30.39
67803;BME280;54601;51.378;-1.342;2023-02-16T00:59:15;100830.99;;;19.67;30.44
67803;BME280;54601;51.378;-1.342;2023-02-16T01:01:34;100832.06;;;19.77;30.34
67803;BME280;54601;51.378;-1.342;2023-02-16T01:04:01;100834.43;;;20.09;30.02
67803;BME280;54601;51.378;-1.342;2023-02-16T01:06:24;100828.56;;;19.70;30.43
67803;BME280;54601;51.378;-1.342;2023-02-16T01:08:49;100828.22;;;20.06;30.08
67803;BME280;54601;51.378;-1.342;2023-02-16T01:11:15;100821.84;;;19.68;30.51
67803;BME280;54601;51.378;-1.342;2023-02-16T01:13:43;100817.93;;;20.02;30.41
67803;BME280;54601;51.378;-1.342;2023-02-16T01:16:11;100811.43;;;20.03;30.19
67803;BME280;54601;51.378;-1.342;2023-02-16T01:18:30;100807.90;;;19.99;30.51
67803;BME280;54601;51.378;-1.342;2023-02-16T01:20:55;100802.74;;;19.75;30.45
67803;BME280;54601;51.378;-1.342;2023-02-16T01:23:20;100801.26;;;20.15;30.04
67803;BME280;54601;51.378;-1.342;2023-02-16T01:25:46;100798.19;;;19.82;30.41
67803;BME280;54601;51.378;-1.342;2023-02-16T01:28:17;100795.46;;;19.81;30.46
67803;BME280;54601;51.378;-1.342;2023-02-16T01:30:36;100787.77;;;19.98;30.28
67803;BME280;54601;51.378;-1.342;2023-02-16T01:33:01;100782.66;;;20.04;30.22
67803;BME280;54601;51.378;-1.342;2023-02-16T01:35:31;100783.13;;;19.85;30.40
67803;BME280;54601;51.378;-1.342;2023-02-16T01:37:51;100785.00;;;19.92;30.36
67803;BME280;54601;51.378;-1.342;2023-02-16T01:40:25;100783.70;;;19.89;30.42
67803;BME280;54601;51.378;-1.342;2023-02-16T01:42:48;100780.00;;;19.79;30.53
67803;BME280;54601;51.378;-1.342;2023-02-16T01:45:12;100776.40;;;19.71;30.39
67803;BME280;54601;51.378;-1.342;2023-02-16T01:47:36;100770.84;;;19.83;30.50
67803;BME280;54601;51.378;-1.342;2023-02-16T01:49:57;100763.05;;;19.92;30.41
67803;BME280;54601;51.378;-1.342;2023-02-16T01:52:28;100762.34;;;19.86;30.53
67803;BME280;54601;51.378;-1.342;2023-02-16T01:54:51;100760.87;;;19.94;30.41
67803;BME280;54601;51.378;-1.342;2023-02-16T01:57:22;100759.81;;;19.86;30.49
67803;BME280;54601;51.378;-1.342;2023-02-16T02:02:03;100754.85;;;19.95;30.41
67803;BME280;54601;51.378;-1.342;2023-02-16T02:04:33;100748.45;;;19.72;30.65
67803;BME280;54601;51.378;-1.342;2023-02-16T02:06:53;100744.51;;;19.55;30.61
67803;BME280;54601;51.378;-1.342;2023-02-16T02:09:22;100745.93;;;19.91;30.47
67803;BME280;54601;51.378;-1.342;2023-02-16T02:11:47;100741.87;;;19.87;30.54
67803;BME280;54601;51.378;-1.342;2023-02-16T02:14:11;100733.75;;;20.12;30.23
67803;BME280;54601;51.378;-1.342;2023-02-16T02:16:34;100730.27;;;19.71;30.46
67803;BME280;54601;51.378;-1.342;2023-02-16T02:18:59;100723.63;;;19.91;30.49
67803;BME280;54601;51.378;-1.342;2023-02-16T02:24:03;100719.38;;;19.76;30.40
67803;BME280;54601;51.378;-1.342;2023-02-16T02:28:45;100716.07;;;19.95;30.43
67803;BME280;54601;51.378;-1.342;2023-02-16T02:31:08;100706.23;;;20.30;30.01
67803;BME280;54601;51.378;-1.342;2023-02-16T02:33:39;100705.24;;;20.12;30.24
67803;BME280;54601;51.378;-1.342;2023-02-16T02:36:01;100701.62;;;20.03;30.35
67803;BME280;54601;51.378;-1.342;2023-02-16T02:38:24;100703.99;;;19.93;30.43
67803;BME280;54601;51.378;-1.342;2023-02-16T02:40:53;100709.23;;;19.94;30.42
67803;BME280;54601;51.378;-1.342;2023-02-16T02:43:14;100709.74;;;19.96;30.41
67803;BME280;54601;51.378;-1.342;2023-02-16T02:45:37;100710.76;;;20.51;29.79
67803;BME280;54601;51.378;-1.342;2023-02-16T02:48:00;100705.91;;;20.05;30.27
67803;BME280;54601;51.378;-1.342;2023-02-16T02:50:33;100700.03;;;19.99;30.35
67803;BME280;54601;51.378;-1.342;2023-02-16T02:52:50;100695.80;;;19.98;30.36
67803;BME280;54601;51.378;-1.342;2023-02-16T02:55:16;100692.43;;;19.91;30.43
67803;BME280;54601;51.378;-1.342;2023-02-16T02:57:43;100690.46;;;19.79;30.34
67803;BME280;54601;51.378;-1.342;2023-02-16T03:00:10;100687.35;;;20.20;30.09
67803;BME280;54601;51.378;-1.342;2023-02-16T03:02:32;100677.21;;;19.96;30.37
67803;BME280;54601;51.378;-1.342;2023-02-16T03:04:56;100672.55;;;20.08;30.23
67803;BME280;54601;51.378;-1.342;2023-02-16T03:07:22;100673.39;;;19.90;30.42
67803;BME280;54601;51.378;-1.342;2023-02-16T03:09:47;100668.61;;;19.98;30.33
67803;BME280;54601;51.378;-1.342;2023-02-16T03:12:12;100663.85;;;19.99;30.33
67803;BME280;54601;51.378;-1.342;2023-02-16T03:14:41;100661.68;;;20.08;30.25
67803;BME280;54601;51.378;-1.342;2023-02-16T03:17:06;100659.32;;;19.87;30.19
67803;BME280;54601;51.378;-1.342;2023-02-16T03:19:27;100661.11;;;20.16;30.13
67803;BME280;54601;51.378;-1.342;2023-02-16T03:21:53;100662.75;;;20.12;30.18
67803;BME280;54601;51.378;-1.342;2023-02-16T03:24:20;100666.45;;;19.95;30.37
67803;BME280;54601;51.378;-1.342;2023-02-16T03:26:43;100660.95;;;20.01;30.30
67803;BME280;54601;51.378;-1.342;2023-02-16T03:29:08;100658.77;;;20.26;30.32
67803;BME280;54601;51.378;-1.342;2023-02-16T03:31:35;100652.29;;;20.02;30.29
67803;BME280;54601;51.378;-1.342;2023-02-16T03:33:58;100649.56;;;20.06;30.27
67803;BME280;54601;51.378;-1.342;2023-02-16T03:36:26;100647.51;;;20.10;30.21
67803;BME280;54601;51.378;-1.342;2023-02-16T03:38:48;100647.30;;;20.04;30.23
67803;BME280;54601;51.378;-1.342;2023-02-16T03:41:13;100650.67;;;20.05;30.27
67803;BME280;54601;51.378;-1.342;2023-02-16T03:43:38;100646.74;;;20.04;30.27
67803;BME280;54601;51.378;-1.342;2023-02-16T03:46:04;100642.33;;;20.03;30.29
67803;BME280;54601;51.378;-1.342;2023-02-16T03:48:29;100649.22;;;20.06;30.27
67803;BME280;54601;51.378;-1.342;2023-02-16T03:50:54;100644.10;;;19.95;30.34
67803;BME280;54601;51.378;-1.342;2023-02-16T03:53:19;100638.03;;;19.92;30.38
67803;BME280;54601;51.378;-1.342;2023-02-16T03:55:46;100636.34;;;20.11;30.16
67803;BME280;54601;51.378;-1.342;2023-02-16T03:58:12;100631.09;;;20.00;30.29
67803;BME280;54601;51.378;-1.342;2023-02-16T04:00:35;100623.09;;;19.99;30.32
67803;BME280;54601;51.378;-1.342;2023-02-16T04:03:00;100619.22;;;19.98;30.35
67803;BME280;54601;51.378;-1.342;2023-02-16T04:05:25;100614.75;;;19.91;30.42
67803;BME280;54601;51.378;-1.342;2023-02-16T04:07:50;100618.26;;;19.77;30.33
67803;BME280;54601;51.378;-1.342;2023-02-16T04:10:15;100615.89;;;19.92;30.35
67803;BME280;54601;51.378;-1.342;2023-02-16T04:12:40;100610.42;;;19.95;30.35
67803;BME280;54601;51.378;-1.342;2023-02-16T04:15:08;100608.25;;;20.38;29.84
67803;BME280;54601;51.378;-1.342;2023-02-16T04:17:30;100606.95;;;19.93;30.39
67803;BME280;54601;51.378;-1.342;2023-02-16T04:19:56;100600.77;;;20.05;30.25
67803;BME280;54601;51.378;-1.342;2023-02-16T04:22:21;100594.84;;;19.97;30.32
67803;BME280;54601;51.378;-1.342;2023-02-16T04:24:46;100581.20;;;19.92;30.37
67803;BME280;54601;51.378;-1.342;2023-02-16T04:27:11;100578.25;;;19.88;30.42
67803;BME280;54601;51.378;-1.342;2023-02-16T04:29:36;100581.65;;;19.95;30.38
67803;BME280;54601;51.378;-1.342;2023-02-16T04:32:01;100581.73;;;19.98;30.35
67803;BME280;54601;51.378;-1.342;2023-02-16T04:34:26;100581.59;;;19.87;30.41
67803;BME280;54601;51.378;-1.342;2023-02-16T04:36:51;100583.38;;;20.53;30.23
67803;BME280;54601;51.378;-1.342;2023-02-16T04:39:16;100577.17;;;19.87;30.39
67803;BME280;54601;51.378;-1.342;2023-02-16T04:41:41;100572.83;;;19.83;30.45
67803;BME280;54601;51.378;-1.342;2023-02-16T04:44:06;100572.14;;;19.96;30.28
67803;BME280;54601;51.378;-1.342;2023-02-16T04:46:31;100581.24;;;19.86;30.37
67803;BME280;54601;51.378;-1.342;2023-02-16T04:48:56;100584.26;;;19.79;30.43
67803;BME280;54601;51.378;-1.342;2023-02-16T04:51:21;100578.16;;;19.86;30.31
67803;BME280;54601;51.378;-1.342;2023-02-16T04:53:46;100572.04;;;19.82;30.36
67803;BME280;54601;51.378;-1.342;2023-02-16T04:56:12;100577.60;;;19.74;30.43
67803;BME280;54601;51.378;-1.342;2023-02-16T04:58:37;100585.39;;;19.89;30.26
67803;BME280;54601;51.378;-1.342;2023-02-16T05:01:02;100574.02;;;19.80;30.32
67803;BME280;54601;51.378;-1.342;2023-02-16T05:03:27;100569.78;;;19.80;30.34
67803;BME280;54601;51.378;-1.342;2023-02-16T05:05:53;100564.65;;;19.81;30.31
67803;BME280;54601;51.378;-1.342;2023-02-16T05:08:17;100571.56;;;19.94;30.22
67803;BME280;54601;51.378;-1.342;2023-02-16T05:10:42;100566.80;;;19.58;30.32
67803;BME280;54601;51.378;-1.342;2023-02-16T05:13:08;100565.90;;;19.71;30.35
67803;BME280;54601;51.378;-1.342;2023-02-16T05:15:33;100562.55;;;19.87;30.20
67803;BME280;54601;51.378;-1.342;2023-02-16T05:17:58;100558.41;;;19.62;30.23
67803;BME280;54601;51.378;-1.342;2023-02-16T05:20:23;100561.89;;;19.80;30.27
67803;BME280;54601;51.378;-1.342;2023-02-16T05:22:48;100564.24;;;19.71;30.33
67803;BME280;54601;51.378;-1.342;2023-02-16T05:25:13;100566.17;;;19.70;30.33
67803;BME280;54601;51.378;-1.342;2023-02-16T05:27:38;100566.85;;;19.55;30.29
67803;BME280;54601;51.378;-1.342;2023-02-16T05:30:05;100570.04;;;20.01;30.00
67803;BME280;54601;51.378;-1.342;2023-02-16T05:32:29;100568.29;;;19.66;30.28
67803;BME280;54601;51.378;-1.342;2023-02-16T05:34:54;100565.61;;;19.90;30.05
67803;BME280;54601;51.378;-1.342;2023-02-16T05:37:19;100563.96;;;20.25;29.64
67803;BME280;54601;51.378;-1.342;2023-02-16T05:39:44;100556.48;;;19.71;30.22
67803;BME280;54601;51.378;-1.342;2023-02-16T05:42:09;100552.85;;;20.18;29.95
67803;BME280;54601;51.378;-1.342;2023-02-16T05:44:35;100543.07;;;19.70;30.20
67803;BME280;54601;51.378;-1.342;2023-02-16T05:47:00;100543.87;;;20.17;29.63
67803;BME280;54601;51.378;-1.342;2023-02-16T05:49:25;100543.62;;;19.97;29.82
67803;BME280;54601;51.378;-1.342;2023-02-16T05:51:50;100547.65;;;19.81;29.97
67803;BME280;54601;51.378;-1.342;2023-02-16T05:54:15;100541.89;;;19.90;29.86
67803;BME280;54601;51.378;-1.342;2023-02-16T05:56:40;100546.11;;;19.84;29.95
67803;BME280;54601;51.378;-1.342;2023-02-16T05:59:05;100537.80;;;19.69;30.05
67803;BME280;54601;51.378;-1.342;2023-02-16T06:01:30;100533.48;;;19.84;29.89
67803;BME280;54601;51.378;-1.342;2023-02-16T06:03:56;100530.12;;;19.49;30.21
67803;BME280;54601;51.378;-1.342;2023-02-16T06:06:21;100529.47;;;19.68;30.05
67803;BME280;54601;51.378;-1.342;2023-02-16T06:08:46;100524.58;;;19.87;29.78
67803;BME280;54601;51.378;-1.342;2023-02-16T06:11:11;100526.35;;;19.58;30.07
67803;BME280;54601;51.378;-1.342;2023-02-16T06:13:36;100526.32;;;19.47;30.22
67803;BME280;54601;51.378;-1.342;2023-02-16T06:16:02;100526.75;;;19.52;30.17
67803;BME280;54601;51.378;-1.342;2023-02-16T06:18:27;100523.80;;;19.84;29.84
67803;BME280;54601;51.378;-1.342;2023-02-16T06:20:55;100519.79;;;19.73;29.89
67803;BME280;54601;51.378;-1.342;2023-02-16T06:23:17;100521.44;;;19.49;30.14
67803;BME280;54601;51.378;-1.342;2023-02-16T06:25:43;100518.07;;;19.59;30.09
67803;BME280;54601;51.378;-1.342;2023-02-16T06:28:08;100520.52;;;19.64;30.02
67803;BME280;54601;51.378;-1.342;2023-02-16T06:30:32;100520.37;;;19.53;30.14
67803;BME280;54601;51.378;-1.342;2023-02-16T06:32:58;100527.06;;;19.59;30.04
67803;BME280;54601;51.378;-1.342;2023-02-16T06:35:23;100528.45;;;19.62;29.96
67803;BME280;54601;51.378;-1.342;2023-02-16T06:37:48;100520.52;;;19.79;29.83
67803;BME280;54601;51.378;-1.342;2023-02-16T06:40:14;100518.41;;;20.13;29.71
67803;BME280;54601;51.378;-1.342;2023-02-16T06:42:39;100519.52;;;19.74;29.85
67803;BME280;54601;51.378;-1.342;2023-02-16T06:45:04;100510.44;;;19.70;29.90
67803;BME280;54601;51.378;-1.342;2023-02-16T06:47:29;100499.55;;;19.60;30.05
67803;BME280;54601;51.378;-1.342;2023-02-16T06:49:54;100495.71;;;19.32;30.34
67803;BME280;54601;51.378;-1.342;2023-02-16T06:52:19;100490.65;;;19.58;30.08
67803;BME280;54601;51.378;-1.342;2023-02-16T06:54:44;100492.33;;;19.41;30.29
67803;BME280;54601;51.378;-1.342;2023-02-16T06:57:09;100499.40;;;19.87;29.82
67803;BME280;54601;51.378;-1.342;2023-02-16T06:59:34;100496.54;;;19.62;30.06
67803;BME280;54601;51.378;-1.342;2023-02-16T07:02:00;100500.47;;;19.72;29.99
67803;BME280;54601;51.378;-1.342;2023-02-16T07:04:25;100497.56;;;19.53;30.20
67803;BME280;54601;51.378;-1.342;2023-02-16T07:06:50;100504.65;;;19.51;30.26
67803;BME280;54601;51.378;-1.342;2023-02-16T07:09:15;100513.77;;;19.63;30.19
67803;BME280;54601;51.378;-1.342;2023-02-16T07:11:40;100514.75;;;19.56;30.24
67803;BME280;54601;51.378;-1.342;2023-02-16T07:14:05;100519.39;;;19.59;30.26
67803;BME280;54601;51.378;-1.342;2023-02-16T07:16:30;100519.69;;;19.60;30.26
67803;BME280;54601;51.378;-1.342;2023-02-16T07:18:56;100518.90;;;19.61;30.27
67803;BME280;54601;51.378;-1.342;2023-02-16T07:21:21;100514.29;;;19.59;30.33
67803;BME280;54601;51.378;-1.342;2023-02-16T07:23:46;100512.76;;;19.82;30.41
67803;BME280;54601;51.378;-1.342;2023-02-16T07:26:11;100510.97;;;19.67;30.31
67803;BME280;54601;51.378;-1.342;2023-02-16T07:28:36;100504.10;;;19.61;30.42
67803;BME280;54601;51.378;-1.342;2023-02-16T07:31:06;100505.42;;;19.65;30.42
67803;BME280;54601;51.378;-1.342;2023-02-16T07:33:26;100512.46;;;19.52;30.55
67803;BME280;54601;51.378;-1.342;2023-02-16T07:35:52;100505.98;;;19.59;30.51
67803;BME280;54601;51.378;-1.342;2023-02-16T07:38:17;100507.29;;;19.61;30.55
67803;BME280;54601;51.378;-1.342;2023-02-16T07:40:42;100513.55;;;19.55;30.62
67803;BME280;54601;51.378;-1.342;2023-02-16T07:43:07;100513.38;;;19.65;30.55
67803;BME280;54601;51.378;-1.342;2023-02-16T07:45:32;100521.49;;;19.68;30.55
67803;BME280;54601;51.378;-1.342;2023-02-16T07:47:58;100523.15;;;19.43;30.62
67803;BME280;54601;51.378;-1.342;2023-02-16T07:50:23;100518.82;;;19.92;30.42
67803;BME280;54601;51.378;-1.342;2023-02-16T07:52:48;100528.91;;;19.70;30.60
67803;BME280;54601;51.378;-1.342;2023-02-16T07:55:13;100530.29;;;19.68;30.66
67803;BME280;54601;51.378;-1.342;2023-02-16T07:57:38;100543.58;;;19.82;30.55
67803;BME280;54601;51.378;-1.342;2023-02-16T08:00:05;100542.06;;;19.91;30.53
67803;BME280;54601;51.378;-1.342;2023-02-16T08:02:28;100548.12;;;19.66;30.77
67803;BME280;54601;51.378;-1.342;2023-02-16T08:04:54;100546.81;;;19.85;30.66
67803;BME280;54601;51.378;-1.342;2023-02-16T08:07:19;100542.73;;;19.74;30.74
67803;BME280;54601;51.378;-1.342;2023-02-16T08:09:44;100534.83;;;19.69;30.84
67803;BME280;54601;51.378;-1.342;2023-02-16T08:12:11;100545.51;;;19.68;30.86
67803;BME280;54601;51.378;-1.342;2023-02-16T08:14:35;100549.80;;;19.89;30.68
67803;BME280;54601;51.378;-1.342;2023-02-16T08:16:59;100546.95;;;20.11;30.77
67803;BME280;54601;51.378;-1.342;2023-02-16T08:19:25;100540.42;;;19.77;30.88
67803;BME280;54601;51.378;-1.342;2023-02-16T08:21:50;100539.34;;;19.79;30.87
67803;BME280;54601;51.378;-1.342;2023-02-16T08:24:15;100534.26;;;19.81;30.82
67803;BME280;54601;51.378;-1.342;2023-02-16T08:26:41;100533.18;;;19.96;30.76
67803;BME280;54601;51.378;-1.342;2023-02-16T08:29:07;100528.97;;;19.96;30.73
67803;BME280;54601;51.378;-1.342;2023-02-16T08:31:33;100533.82;;;19.73;31.01
67803;BME280;54601;51.378;-1.342;2023-02-16T08:33:58;100539.00;;;19.91;30.85
67803;BME280;54601;51.378;-1.342;2023-02-16T08:36:23;100536.40;;;20.05;30.75
67803;BME280;54601;51.378;-1.342;2023-02-16T08:38:46;100530.73;;;20.05;30.78
67803;BME280;54601;51.378;-1.342;2023-02-16T08:41:11;100523.36;;;19.92;30.90
67803;BME280;54601;51.378;-1.342;2023-02-16T08:43:36;100528.41;;;19.94;30.95
67803;BME280;54601;51.378;-1.342;2023-02-16T08:46:01;100530.22;;;19.93;30.95
67803;BME280;54601;51.378;-1.342;2023-02-16T08:48:26;100527.97;;;19.85;31.05
67803;BME280;54601;51.378;-1.342;2023-02-16T08:50:52;100533.21;;;19.87;31.03
67803;BME280;54601;51.378;-1.342;2023-02-16T08:53:17;100533.05;;;19.81;31.11
67803;BME280;54601;51.378;-1.342;2023-02-16T08:55:42;100537.19;;;19.61;31.12
67803;BME280;54601;51.378;-1.342;2023-02-16T08:58:07;100545.49;;;19.91;31.09
67803;BME280;54601;51.378;-1.342;2023-02-16T09:00:32;100549.24;;;19.84;31.15
67803;BME280;54601;51.378;-1.342;2023-02-16T09:02:58;100548.02;;;19.92;31.07
67803;BME280;54601;51.378;-1.342;2023-02-16T09:05:22;100545.86;;;19.95;31.02
67803;BME280;54601;51.378;-1.342;2023-02-16T09:07:47;100544.86;;;19.67;31.11
67803;BME280;54601;51.378;-1.342;2023-02-16T09:10:13;100544.33;;;19.92;31.08
67803;BME280;54601;51.378;-1.342;2023-02-16T09:12:38;100547.76;;;19.86;31.20
67803;BME280;54601;51.378;-1.342;2023-02-16T09:15:03;100543.78;;;19.93;31.09
67803;BME280;54601;51.378;-1.342;2023-02-16T09:17:28;100538.74;;;19.90;31.17
67803;BME280;54601;51.378;-1.342;2023-02-16T09:19:53;100538.46;;;20.09;30.76
67803;BME280;54601;51.378;-1.342;2023-02-16T09:22:18;100528.99;;;20.10;30.99
67803;BME280;54601;51.378;-1.342;2023-02-16T09:24:43;100532.43;;;19.69;31.16
67803;BME280;54601;51.378;-1.342;2023-02-16T09:27:08;100522.92;;;19.96;30.92
67803;BME280;54601;51.378;-1.342;2023-02-16T09:29:34;100525.15;;;20.06;31.05
67803;BME280;54601;51.378;-1.342;2023-02-16T09:31:59;100521.01;;;19.88;31.26
67803;BME280;54601;51.378;-1.342;2023-02-16T09:34:24;100522.70;;;20.13;31.04
67803;BME280;54601;51.378;-1.342;2023-02-16T09:36:49;100527.01;;;20.05;31.12
67803;BME280;54601;51.378;-1.342;2023-02-16T09:39:15;100529.26;;;20.10;31.08
67803;BME280;54601;51.378;-1.342;2023-02-16T09:41:53;100531.42;;;20.02;31.12
67803;BME280;54601;51.378;-1.342;2023-02-16T09:44:11;100530.22;;;19.91;31.24
67803;BME280;54601;51.378;-1.342;2023-02-16T09:46:30;100531.00;;;19.94;31.24
67803;BME280;54601;51.378;-1.342;2023-02-16T09:48:55;100535.28;;;19.73;31.24
67803;BME280;54601;51.378;-1.342;2023-02-16T09:51:24;100536.69;;;20.04;31.15
67803;BME280;54601;51.378;-1.342;2023-02-16T09:53:46;100540.76;;;20.22;31.26
67803;BME280;54601;51.378;-1.342;2023-02-16T09:56:19;100539.98;;;19.99;31.25
67803;BME280;54601;51.378;-1.342;2023-02-16T09:58:40;100543.91;;;20.08;31.13
67803;BME280;54601;51.378;-1.342;2023-02-16T10:01:06;100542.61;;;19.98;31.24
67803;BME280;54601;51.378;-1.342;2023-02-16T10:03:36;100539.92;;;20.07;31.17
67803;BME280;54601;51.378;-1.342;2023-02-16T10:05:57;100542.63;;;20.02;31.24
67803;BME280;54601;51.378;-1.342;2023-02-16T10:08:23;100547.59;;;20.11;31.14
67803;BME280;54601;51.378;-1.342;2023-02-16T10:10:46;100548.66;;;19.92;31.38
67803;BME280;54601;51.378;-1.342;2023-02-16T10:13:14;100548.83;;;19.87;31.20
67803;BME280;54601;51.378;-1.342;2023-02-16T10:15:32;100548.16;;;19.97;31.07
67803;BME280;54601;51.378;-1.342;2023-02-16T10:17:58;100550.74;;;20.33;30.96
67803;BME280;54601;51.378;-1.342;2023-02-16T10:20:24;100557.33;;;20.11;31.20
67803;BME280;54601;51.378;-1.342;2023-02-16T10:22:49;100556.47;;;19.85;31.28
67803;BME280;54601;51.378;-1.342;2023-02-16T10:25:14;100556.03;;;19.85;31.30
67803;BME280;54601;51.378;-1.342;2023-02-16T10:27:39;100552.92;;;20.04;31.30
67803;BME280;54601;51.378;-1.342;2023-02-16T10:30:10;100558.34;;;20.11;31.29
67803;BME280;54601;51.378;-1.342;2023-02-16T10:32:31;100564.01;;;20.15;31.24
67803;BME280;54601;51.378;-1.342;2023-02-16T10:35:01;100560.32;;;19.98;31.41
67803;BME280;54601;51.378;-1.342;2023-02-16T10:37:27;100565.40;;;20.11;31.31
67803;BME280;54601;51.378;-1.342;2023-02-16T10:39:49;100572.53;;;20.08;31.38
67803;BME280;54601;51.378;-1.342;2023-02-16T10:42:17;100568.60;;;20.01;31.45
67803;BME280;54601;51.378;-1.342;2023-02-16T10:44:35;100569.58;;;20.06;31.39
67803;BME280;54601;51.378;-1.342;2023-02-16T10:46:59;100574.05;;;20.01;31.50
67803;BME280;54601;51.378;-1.342;2023-02-16T10:49:23;100577.12;;;20.07;31.42
67803;BME280;54601;51.378;-1.342;2023-02-16T10:51:49;100570.96;;;19.99;31.50
67803;BME280;54601;51.378;-1.342;2023-02-16T10:54:17;100568.86;;;20.21;31.26
67803;BME280;54601;51.378;-1.342;2023-02-16T10:56:46;100567.38;;;20.09;31.45
67803;BME280;54601;51.378;-1.342;2023-02-16T10:59:06;100568.16;;;20.00;31.55
67803;BME280;54601;51.378;-1.342;2023-02-16T11:01:35;100565.19;;;20.16;31.44
67803;BME280;54601;51.378;-1.342;2023-02-16T11:03:54;100560.30;;;19.98;31.64
67803;BME280;54601;51.378;-1.342;2023-02-16T11:06:22;100559.48;;;20.10;31.48
67803;BME280;54601;51.378;-1.342;2023-02-16T11:08:47;100556.00;;;20.04;31.52
67803;BME280;54601;51.378;-1.342;2023-02-16T11:11:10;100555.75;;;20.01;31.59
67803;BME280;54601;51.378;-1.342;2023-02-16T11:13:35;100558.17;;;19.92;31.75
67803;BME280;54601;51.378;-1.342;2023-02-16T11:16:04;100554.07;;;20.06;31.59
67803;BME280;54601;51.378;-1.342;2023-02-16T11:18:32;100556.61;;;20.02;31.62
67803;BME280;54601;51.378;-1.342;2023-02-16T11:20:53;100561.75;;;20.08;31.59
67803;BME280;54601;51.378;-1.342;2023-02-16T11:23:21;100565.17;;;19.91;31.57
67803;BME280;54601;51.378;-1.342;2023-02-16T11:25:40;100577.52;;;20.13;31.53
67803;BME280;54601;51.378;-1.342;2023-02-16T11:28:06;100589.81;;;19.89;31.58
67803;BME280;54601;51.378;-1.342;2023-02-16T11:30:33;100592.56;;;20.00;31.75
67803;BME280;54601;51.378;-1.342;2023-02-16T11:32:56;100589.15;;;20.06;31.68
67803;BME280;54601;51.378;-1.342;2023-02-16T11:35:21;100584.17;;;20.15;31.59
67803;BME280;54601;51.378;-1.342;2023-02-16T11:37:46;100583.91;;;20.09;31.66
67803;BME280;54601;51.378;-1.342;2023-02-16T11:40:17;100583.33;;;20.04;31.74
67803;BME280;54601;51.378;-1.342;2023-02-16T11:42:39;100575.37;;;20.00;31.77
67803;BME280;54601;51.378;-1.342;2023-02-16T11:45:03;100573.70;;;20.17;31.64
67803;BME280;54601;51.378;-1.342;2023-02-16T11:47:29;100573.38;;;20.09;31.68
67803;BME280;54601;51.378;-1.342;2023-02-16T11:52:23;100566.55;;;20.05;31.76
67803;BME280;54601;51.378;-1.342;2023-02-16T11:54:47;100562.36;;;19.99;31.85
67803;BME280;54601;51.378;-1.342;2023-02-16T11:57:10;100551.46;;;20.02;31.76
67803;BME280;54601;51.378;-1.342;2023-02-16T11:59:35;100552.89;;;20.09;31.74
67803;BME280;54601;51.378;-1.342;2023-02-16T12:04:36;100545.41;;;20.27;31.57
67803;BME280;54601;51.378;-1.342;2023-02-16T12:06:58;100547.01;;;20.32;31.55
67803;BME280;54601;51.378;-1.342;2023-02-16T12:09:25;100546.83;;;19.81;31.89
67803;BME280;54601;51.378;-1.342;2023-02-16T12:11:53;100544.60;;;20.12;31.80
67803;BME280;54601;51.378;-1.342;2023-02-16T12:14:19;100539.95;;;20.00;31.88
67803;BME280;54601;51.378;-1.342;2023-02-16T12:16:40;100531.36;;;20.02;31.88
67803;BME280;54601;51.378;-1.342;2023-02-16T12:19:13;100530.83;;;20.12;31.79
67803;BME280;54601;51.378;-1.342;2023-02-16T12:21:31;100533.95;;;20.19;31.80
67803;BME280;54601;51.378;-1.342;2023-02-16T12:23:57;100528.24;;;20.16;31.84
67803;BME280;54601;51.378;-1.342;2023-02-16T12:26:30;100528.39;;;20.08;31.86
67803;BME280;54601;51.378;-1.342;2023-02-16T12:28:49;100529.62;;;19.75;32.01
67803;BME280;54601;51.378;-1.342;2023-02-16T12:31:15;100524.77;;;20.29;31.65
67803;BME280;54601;51.378;-1.342;2023-02-16T12:33:42;100519.14;;;20.01;32.01
67803;BME280;54601;51.378;-1.342;2023-02-16T12:36:12;100515.75;;;20.18;31.80
67803;BME280;54601;51.378;-1.342;2023-02-16T12:38:35;100517.71;;;20.12;31.89
67803;BME280;54601;51.378;-1.342;2023-02-16T12:40:59;100509.63;;;20.01;32.01